Time,TemperatureF,DewpointF,PressureIn,WindDirection,WindDirectionDegrees,WindSpeedMPH,WindSpeedGustMPH,Humidity,HourlyPrecipIn,Conditions,Clouds,dailyrainin,SoftwareType,DateUTC
2013-04-06 00:00:00,32.7,18.7,30.01,NNW,342,1.0,13.0,56,0.00,,,0.00,meteohub,2013-04-06 04:00:00,
2013-04-06 00:03:00,32.7,18.7,30.01,ENE,71,9.0,13.0,56,0.00,,,0.00,meteohub,2013-04-06 04:03:00,
2013-04-06 00:05:00,32.5,18.5,30.01,East,79,6.0,13.0,56,0.00,,,0.00,meteohub,2013-04-06 04:05:00,
2013-04-06 00:10:00,32.5,18.5,30.01,ENE,60,2.0,15.0,56,0.00,,,0.00,meteohub,2013-04-06 04:10:00,
2013-04-06 00:15:00,32.5,18.5,30.01,North,4,0.0,15.0,56,0.00,,,0.00,meteohub,2013-04-06 04:15:00,
2013-04-06 00:22:00,32.4,18.5,30.01,NNW,343,4.0,15.0,56,0.00,,,0.00,meteohub,2013-04-06 04:22:00,
2013-04-06 00:27:00,32.2,18.7,30.01,NE,38,6.0,14.0,57,0.00,,,0.00,meteohub,2013-04-06 04:27:00,
2013-04-06 00:32:00,32.2,18.7,30.01,NE,50,1.0,14.0,57,0.00,,,0.00,meteohub,2013-04-06 04:32:00,
2013-04-06 00:37:00,32.0,18.1,30.02,ENE,59,4.0,13.0,56,0.00,,,0.00,meteohub,2013-04-06 04:37:00,
2013-04-06 00:42:00,32.0,18.5,30.02,NNE,15,0.0,12.0,57,0.00,,,0.00,meteohub,2013-04-06 04:42:00,
2013-04-06 00:47:00,31.8,18.3,30.02,ENE,63,5.0,12.0,57,0.00,,,0.00,meteohub,2013-04-06 04:47:00,
2013-04-06 00:52:00,31.6,18.1,30.02,East,80,5.0,10.0,57,0.00,,,0.00,meteohub,2013-04-06 04:52:00,
2013-04-06 00:57:00,31.6,18.1,30.02,NNW,345,3.0,12.0,57,0.00,,,0.00,meteohub,2013-04-06 04:57:00,
2013-04-06 01:02:00,31.6,18.1,30.02,ENE,69,2.0,14.0,57,0.00,,,0.00,meteohub,2013-04-06 05:02:00,
2013-04-06 01:07:00,31.6,18.1,30.03,WSW,241,4.0,14.0,57,0.00,,,0.00,meteohub,2013-04-06 05:07:00,
2013-04-06 01:12:00,31.6,17.8,30.03,ENE,67,5.0,14.0,56,0.00,,,0.00,meteohub,2013-04-06 05:12:00,
2013-04-06 01:17:00,31.6,17.8,30.03,ENE,63,0.0,15.0,56,0.00,,,0.00,meteohub,2013-04-06 05:17:00,
2013-04-06 01:22:00,31.5,17.6,30.03,NNW,345,4.0,15.0,56,0.00,,,0.00,meteohub,2013-04-06 05:22:00,
2013-04-06 01:27:00,31.5,18.0,30.03,ENE,58,6.0,11.0,57,0.00,,,0.00,meteohub,2013-04-06 05:27:00,
2013-04-06 01:32:00,31.5,18.0,30.03,NNW,343,4.0,13.0,57,0.00,,,0.00,meteohub,2013-04-06 05:32:00,
2013-04-06 01:37:00,31.5,18.3,30.04,East,79,4.0,13.0,58,0.00,,,0.00,meteohub,2013-04-06 05:37:00,
2013-04-06 01:42:00,31.3,18.1,30.04,NW,319,1.0,12.0,58,0.00,,,0.00,meteohub,2013-04-06 05:42:00,
2013-04-06 01:48:00,31.3,18.1,30.04,ENE,67,7.0,12.0,58,0.00,,,0.00,meteohub,2013-04-06 05:48:00,
2013-04-06 01:53:00,31.3,18.7,30.04,North,9,0.0,11.0,59,0.00,,,0.00,meteohub,2013-04-06 05:53:00,
2013-04-06 01:58:00,31.3,18.7,30.04,ENE,59,2.0,11.0,59,0.00,,,0.00,meteohub,2013-04-06 05:58:00,
2013-04-06 02:03:00,31.3,18.7,30.04,East,83,10.0,11.0,59,0.00,,,0.00,meteohub,2013-04-06 06:03:00,
2013-04-06 02:08:00,31.1,18.5,30.04,NE,38,5.0,12.0,59,0.00,,,0.00,meteohub,2013-04-06 06:08:00,
2013-04-06 02:13:00,31.1,18.5,30.04,ENE,71,6.0,12.0,59,0.00,,,0.00,meteohub,2013-04-06 06:13:00,
2013-04-06 02:18:00,30.9,18.7,30.04,NNW,347,6.0,12.0,60,0.00,,,0.00,meteohub,2013-04-06 06:18:00,
2013-04-06 02:23:00,30.9,18.3,30.05,NE,40,5.0,12.0,59,0.00,,,0.00,meteohub,2013-04-06 06:23:00,
2013-04-06 02:28:00,30.9,18.7,30.05,NE,54,5.0,12.0,60,0.00,,,0.00,meteohub,2013-04-06 06:28:00,
2013-04-06 02:33:00,30.9,18.7,30.05,ENE,70,0.0,13.0,60,0.00,,,0.00,meteohub,2013-04-06 06:33:00,
2013-04-06 02:38:00,30.9,18.3,30.06,ENE,58,1.0,13.0,59,0.00,,,0.00,meteohub,2013-04-06 06:38:00,
2013-04-06 02:44:00,30.9,18.7,30.05,NE,34,1.0,13.0,60,0.00,,,0.00,meteohub,2013-04-06 06:44:00,
2013-04-06 02:49:00,30.7,18.1,30.06,NE,44,5.0,12.0,59,0.00,,,0.00,meteohub,2013-04-06 06:49:00,
2013-04-06 02:55:00,30.9,18.7,30.06,NNE,29,7.0,13.0,60,0.00,,,0.00,meteohub,2013-04-06 06:55:00,
2013-04-06 03:00:00,30.7,18.5,30.06,East,80,0.0,13.0,60,0.00,,,0.00,meteohub,2013-04-06 07:00:00,
2013-04-06 03:05:00,30.7,18.5,30.06,ENE,69,0.0,13.0,60,0.00,,,0.00,meteohub,2013-04-06 07:05:00,
2013-04-06 03:10:00,30.7,18.9,30.06,ENE,60,2.0,8.0,61,0.00,,,0.00,meteohub,2013-04-06 07:10:00,
2013-04-06 03:15:00,30.9,19.0,30.06,ENE,77,1.0,13.0,61,0.00,,,0.00,meteohub,2013-04-06 07:15:00,
2013-04-06 03:20:00,30.9,19.0,30.07,East,81,5.0,16.0,61,0.00,,,0.00,meteohub,2013-04-06 07:20:00,
2013-04-06 03:25:00,30.9,19.0,30.07,ENE,70,4.0,16.0,61,0.00,,,0.00,meteohub,2013-04-06 07:25:00,
2013-04-06 03:30:00,30.9,19.4,30.07,West,266,3.0,13.0,62,0.00,,,0.00,meteohub,2013-04-06 07:30:00,
2013-04-06 03:35:00,30.9,19.8,30.08,NNE,21,11.0,11.0,63,0.00,,,0.00,meteohub,2013-04-06 07:35:00,
2013-04-06 03:40:00,30.9,20.5,30.09,NE,48,2.0,9.0,65,0.00,,,0.00,meteohub,2013-04-06 07:40:00,
2013-04-06 03:45:00,30.7,20.7,30.09,ENE,59,5.0,13.0,66,0.00,,,0.00,meteohub,2013-04-06 07:45:00,
2013-04-06 03:50:00,30.6,19.8,30.09,NW,307,3.0,13.0,64,0.00,,,0.00,meteohub,2013-04-06 07:50:00,
2013-04-06 03:55:00,30.4,19.2,30.10,NNW,335,7.0,13.0,63,0.00,,,0.00,meteohub,2013-04-06 07:55:00,
2013-04-06 04:00:00,30.2,18.3,30.10,North,350,2.0,12.0,61,0.00,,,0.00,meteohub,2013-04-06 08:00:00,
2013-04-06 04:06:00,30.0,17.8,30.11,North,358,3.0,11.0,60,0.00,,,0.00,meteohub,2013-04-06 08:06:00,
2013-04-06 04:11:00,29.8,16.9,30.11,North,1,4.0,10.0,58,0.00,,,0.00,meteohub,2013-04-06 08:11:00,
2013-04-06 04:16:00,29.7,16.3,30.12,NNE,32,5.0,14.0,57,0.00,,,0.00,meteohub,2013-04-06 08:16:00,
2013-04-06 04:22:00,29.5,15.8,30.12,North,0,4.0,14.0,56,0.00,,,0.00,meteohub,2013-04-06 08:22:00,
2013-04-06 04:27:00,29.3,15.6,30.12,NNE,23,7.0,14.0,56,0.00,,,0.00,meteohub,2013-04-06 08:27:00,
2013-04-06 09:14:00,29.8,5.5,30.27,NNE,15,3.0,12.0,35,0.00,,,0.00,meteohub,2013-04-06 13:14:00,
2013-04-06 09:15:00,29.8,4.8,30.27,SSE,167,2.0,12.0,34,0.00,,,0.00,meteohub,2013-04-06 13:15:00,
2013-04-06 09:20:00,30.2,5.9,30.27,ENE,66,1.0,12.0,35,0.00,,,0.00,meteohub,2013-04-06 13:20:00,
2013-04-06 09:25:00,30.6,6.1,30.26,SSE,154,3.0,12.0,35,0.00,,,0.00,meteohub,2013-04-06 13:25:00,
2013-04-06 09:30:00,30.7,5.7,30.27,ENE,65,2.0,12.0,34,0.00,,,0.00,meteohub,2013-04-06 13:30:00,
2013-04-06 09:35:00,30.9,5.9,30.27,ENE,72,12.0,17.0,34,0.00,,,0.00,meteohub,2013-04-06 13:35:00,
2013-04-06 09:40:00,31.1,6.1,30.27,NNE,29,6.0,17.0,34,0.00,,,0.00,meteohub,2013-04-06 13:40:00,
2013-04-06 09:45:00,31.5,5.7,30.27,ENE,58,5.0,20.0,33,0.00,,,0.00,meteohub,2013-04-06 13:45:00,
2013-04-06 09:50:00,31.6,5.9,30.27,NE,45,12.0,20.0,33,0.00,,,0.00,meteohub,2013-04-06 13:50:00,
2013-04-06 09:56:00,31.8,5.9,30.27,ENE,73,4.0,15.0,33,0.00,,,0.00,meteohub,2013-04-06 13:56:00,
2013-04-06 10:01:00,32.2,5.5,30.28,NE,34,5.0,18.0,32,0.00,,,0.00,meteohub,2013-04-06 14:01:00,
2013-04-06 10:07:00,32.4,5.7,30.28,NNW,338,1.0,18.0,32,0.00,,,0.00,meteohub,2013-04-06 14:07:00,
2013-04-06 10:12:00,32.5,5.2,30.27,ENE,77,4.0,14.0,31,0.00,,,0.00,meteohub,2013-04-06 14:12:00,
2013-04-06 10:17:00,32.7,4.6,30.28,East,83,5.0,12.0,30,0.00,,,0.00,meteohub,2013-04-06 14:17:00,
2013-04-06 10:22:00,33.1,5.0,30.28,NE,44,9.0,11.0,30,0.00,,,0.00,meteohub,2013-04-06 14:22:00,
2013-04-06 10:27:00,33.3,5.2,30.28,NE,48,2.0,18.0,30,0.00,,,0.00,meteohub,2013-04-06 14:27:00,
2013-04-06 10:32:00,33.6,5.5,30.28,NE,34,2.0,18.0,30,0.00,,,0.00,meteohub,2013-04-06 14:32:00,
2013-04-06 10:37:00,33.4,3.7,30.28,NNE,23,1.0,18.0,28,0.00,,,0.00,meteohub,2013-04-06 14:37:00,
2013-04-06 10:42:00,34.0,5.7,30.28,NE,35,5.0,18.0,30,0.00,,,0.00,meteohub,2013-04-06 14:42:00,
2013-04-06 10:47:00,34.5,4.8,30.28,NE,52,5.0,15.0,28,0.00,,,0.00,meteohub,2013-04-06 14:47:00,
2013-04-06 10:52:00,34.9,5.0,30.28,ENE,59,0.0,15.0,28,0.00,,,0.00,meteohub,2013-04-06 14:52:00,
2013-04-06 10:57:00,35.2,4.6,30.28,ENE,58,6.0,14.0,27,0.00,,,0.00,meteohub,2013-04-06 14:57:00,
2013-04-06 11:02:00,35.6,3.2,30.29,NE,56,13.0,14.0,25,0.00,,,0.00,meteohub,2013-04-06 15:02:00,
2013-04-06 11:07:00,35.8,4.3,30.28,ENE,66,1.0,14.0,26,0.00,,,0.00,meteohub,2013-04-06 15:07:00,
2013-04-06 11:13:00,36.3,5.5,30.28,NE,45,2.0,18.0,27,0.00,,,0.00,meteohub,2013-04-06 15:13:00,
2013-04-06 11:18:00,37.0,5.4,30.29,ENE,57,1.0,18.0,26,0.00,,,0.00,meteohub,2013-04-06 15:18:00,
2013-04-06 11:23:00,37.6,5.0,30.29,ESE,119,2.0,16.0,25,0.00,,,0.00,meteohub,2013-04-06 15:23:00,
2013-04-06 11:28:00,38.1,3.6,30.29,NE,52,2.0,16.0,23,0.00,,,0.00,meteohub,2013-04-06 15:28:00,
2013-04-06 11:33:00,38.1,3.6,30.29,East,93,1.0,15.0,23,0.00,,,0.00,meteohub,2013-04-06 15:33:00,
2013-04-06 11:38:00,38.5,3.9,30.29,NE,48,2.0,15.0,23,0.00,,,0.00,meteohub,2013-04-06 15:38:00,
2013-04-06 11:43:00,38.8,5.2,30.29,ENE,74,4.0,15.0,24,0.00,,,0.00,meteohub,2013-04-06 15:43:00,
2013-04-06 11:48:00,39.0,4.3,30.29,North,359,0.0,13.0,23,0.00,,,0.00,meteohub,2013-04-06 15:48:00,
2013-04-06 11:53:00,39.2,4.5,30.28,North,354,2.0,13.0,23,0.00,,,0.00,meteohub,2013-04-06 15:53:00,
2013-04-06 11:58:00,39.4,4.6,30.28,ENE,75,4.0,13.0,23,0.00,,,0.00,meteohub,2013-04-06 15:58:00,
2013-04-06 12:03:00,39.9,6.1,30.28,ENE,77,6.0,13.0,24,0.00,,,0.00,meteohub,2013-04-06 16:03:00,
2013-04-06 12:08:00,40.5,8.2,30.28,East,93,0.0,12.0,26,0.00,,,0.00,meteohub,2013-04-06 16:08:00,
2013-04-06 12:13:00,41.2,6.3,30.28,ENE,73,0.0,12.0,23,0.00,,,0.00,meteohub,2013-04-06 16:13:00,
2013-04-06 12:18:00,40.8,5.9,30.28,ENE,58,0.0,12.0,23,0.00,,,0.00,meteohub,2013-04-06 16:18:00,
2013-04-06 12:23:00,41.4,5.4,30.28,ENE,77,4.0,12.0,22,0.00,,,0.00,meteohub,2013-04-06 16:23:00,
2013-04-06 12:28:00,41.7,6.6,30.28,NNW,343,5.0,8.0,23,0.00,,,0.00,meteohub,2013-04-06 16:28:00,
2013-04-06 12:34:00,42.3,9.0,30.28,East,83,1.0,10.0,25,0.00,,,0.00,meteohub,2013-04-06 16:34:00,
2013-04-06 12:39:00,43.0,7.7,30.28,NE,51,7.0,10.0,23,0.00,,,0.00,meteohub,2013-04-06 16:39:00,
2013-04-06 12:44:00,43.2,5.9,30.28,East,81,4.0,9.0,21,0.00,,,0.00,meteohub,2013-04-06 16:44:00,
2013-04-06 12:49:00,43.2,5.9,30.28,NNE,26,2.0,9.0,21,0.00,,,0.00,meteohub,2013-04-06 16:49:00,
2013-04-06 12:54:00,42.4,3.0,30.28,NNW,345,7.0,11.0,19,0.00,,,0.00,meteohub,2013-04-06 16:54:00,
2013-04-06 12:59:00,41.4,6.3,30.28,NNE,29,6.0,11.0,23,0.00,,,0.00,meteohub,2013-04-06 16:59:00,
2013-04-06 13:05:00,41.4,7.3,30.28,East,81,0.0,10.0,24,0.00,,,0.00,meteohub,2013-04-06 17:05:00,
2013-04-06 13:10:00,42.3,7.2,30.28,NE,44,4.0,10.0,23,0.00,,,0.00,meteohub,2013-04-06 17:10:00,
2013-04-06 13:15:00,43.0,6.8,30.28,NE,48,8.0,9.0,22,0.00,,,0.00,meteohub,2013-04-06 17:15:00,
2013-04-06 13:20:00,43.0,6.8,30.28,ENE,69,2.0,11.0,22,0.00,,,0.00,meteohub,2013-04-06 17:20:00,
2013-04-06 13:25:00,43.9,8.4,30.27,NE,53,0.0,11.0,23,0.00,,,0.00,meteohub,2013-04-06 17:25:00,
2013-04-06 13:30:00,43.5,6.1,30.28,NNW,328,1.0,11.0,21,0.00,,,0.00,meteohub,2013-04-06 17:30:00,
2013-04-06 13:35:00,43.5,9.1,30.28,ENE,61,6.0,11.0,24,0.00,,,0.00,meteohub,2013-04-06 17:35:00,
2013-04-06 13:40:00,43.7,9.3,30.28,East,86,2.0,8.0,24,0.00,,,0.00,meteohub,2013-04-06 17:40:00,
2013-04-06 13:45:00,45.0,9.3,30.27,South,172,0.0,8.0,23,0.00,,,0.00,meteohub,2013-04-06 17:45:00,
2013-04-06 13:50:00,46.0,10.2,30.27,East,79,6.0,7.0,23,0.00,,,0.00,meteohub,2013-04-06 17:50:00,
2013-04-06 13:55:00,46.0,6.1,30.28,NNE,29,5.0,7.0,19,0.00,,,0.00,meteohub,2013-04-06 17:55:00,
2013-04-06 14:00:00,45.1,4.1,30.27,ENE,67,6.0,7.0,18,0.00,,,0.00,meteohub,2013-04-06 18:00:00,
2013-04-06 14:05:00,44.6,2.5,30.27,South,190,1.0,8.0,17,0.00,,,0.00,meteohub,2013-04-06 18:05:00,
2013-04-06 14:10:00,45.1,6.4,30.27,East,81,0.0,8.0,20,0.00,,,0.00,meteohub,2013-04-06 18:10:00,
2013-04-06 14:15:00,46.0,7.2,30.27,East,79,10.0,10.0,20,0.00,,,0.00,meteohub,2013-04-06 18:15:00,
2013-04-06 14:20:00,46.9,10.0,30.27,East,92,2.0,9.0,22,0.00,,,0.00,meteohub,2013-04-06 18:20:00,
2013-04-06 14:25:00,47.8,9.9,30.27,East,82,5.0,13.0,21,0.00,,,0.00,meteohub,2013-04-06 18:25:00,
2013-04-06 14:30:00,48.6,12.4,30.27,ESE,108,4.0,13.0,23,0.00,,,0.00,meteohub,2013-04-06 18:30:00,
2013-04-06 14:35:00,48.6,5.7,30.27,NE,51,1.0,9.0,17,0.00,,,0.00,meteohub,2013-04-06 18:35:00,
2013-04-06 14:40:00,46.9,4.5,30.27,South,187,1.0,10.0,17,0.00,,,0.00,meteohub,2013-04-06 18:40:00,
2013-04-06 14:45:00,46.9,5.5,30.27,ENE,67,0.0,10.0,18,0.00,,,0.00,meteohub,2013-04-06 18:45:00,
2013-04-06 14:51:00,48.2,11.1,30.27,SE,140,0.0,9.0,22,0.00,,,0.00,meteohub,2013-04-06 18:51:00,
2013-04-06 14:56:00,48.7,5.9,30.27,NW,312,3.0,9.0,17,0.00,,,0.00,meteohub,2013-04-06 18:56:00,
2013-04-06 15:01:00,47.7,6.3,30.27,South,170,2.0,5.0,18,0.00,,,0.00,meteohub,2013-04-06 19:01:00,
2013-04-06 15:06:00,48.6,14.4,30.27,ENE,77,2.0,5.0,25,0.00,,,0.00,meteohub,2013-04-06 19:06:00,
2013-04-06 15:11:00,47.5,4.8,30.26,West,281,0.0,6.0,17,0.00,,,0.00,meteohub,2013-04-06 19:11:00,
2013-04-06 15:17:00,47.5,10.6,30.26,East,99,2.0,8.0,22,0.00,,,0.00,meteohub,2013-04-06 19:17:00,
2013-04-06 15:22:00,48.7,10.6,30.26,East,86,0.0,8.0,21,0.00,,,0.00,meteohub,2013-04-06 19:22:00,
2013-04-06 15:27:00,48.4,8.1,30.26,ENE,73,0.0,8.0,19,0.00,,,0.00,meteohub,2013-04-06 19:27:00,
2013-04-06 15:32:00,48.4,8.1,30.26,NE,52,5.0,8.0,19,0.00,,,0.00,meteohub,2013-04-06 19:32:00,
2013-04-06 15:37:00,49.5,9.0,30.25,South,173,0.0,8.0,19,0.00,,,0.00,meteohub,2013-04-06 19:37:00,
2013-04-06 15:42:00,49.6,5.2,30.26,NE,45,0.0,7.0,16,0.00,,,0.00,meteohub,2013-04-06 19:42:00,
2013-04-06 15:47:00,48.7,4.5,30.25,South,185,0.0,7.0,16,0.00,,,0.00,meteohub,2013-04-06 19:47:00,
2013-04-06 15:54:00,49.1,6.1,30.25,ENE,61,1.0,7.0,17,0.00,,,0.00,meteohub,2013-04-06 19:54:00,
2013-04-06 15:59:00,50.5,4.6,30.25,SW,234,4.0,5.0,15,0.00,,,0.00,meteohub,2013-04-06 19:59:00,
2013-04-06 16:04:00,49.5,6.4,30.25,West,280,0.0,5.0,17,0.00,,,0.00,meteohub,2013-04-06 20:04:00,
2013-04-06 16:09:00,50.7,7.5,30.25,NE,48,1.0,4.0,17,0.00,,,0.00,meteohub,2013-04-06 20:09:00,
2013-04-06 16:15:00,50.4,8.4,30.25,NE,48,1.0,5.0,18,0.00,,,0.00,meteohub,2013-04-06 20:15:00,
2013-04-06 16:20:00,49.8,8.1,30.25,South,171,0.0,8.0,18,0.00,,,0.00,meteohub,2013-04-06 20:20:00,
2013-04-06 16:25:00,51.4,10.6,30.25,ENE,72,0.0,8.0,19,0.00,,,0.00,meteohub,2013-04-06 20:25:00,
2013-04-06 16:30:00,51.6,5.4,30.25,NW,321,1.0,8.0,15,0.00,,,0.00,meteohub,2013-04-06 20:30:00,
2013-04-06 16:35:00,52.0,13.3,30.25,North,353,0.0,7.0,21,0.00,,,0.00,meteohub,2013-04-06 20:35:00,
2013-04-06 16:40:00,53.4,13.3,30.25,East,90,0.0,7.0,20,0.00,,,0.00,meteohub,2013-04-06 20:40:00,
2013-04-06 16:45:00,54.3,10.4,30.25,East,100,1.0,4.0,17,0.00,,,0.00,meteohub,2013-04-06 20:45:00,
2013-04-06 16:50:00,54.5,7.7,30.25,ENE,60,4.0,7.0,15,0.00,,,0.00,meteohub,2013-04-06 20:50:00,
2013-04-06 16:55:00,53.4,5.4,30.25,NNW,348,2.0,8.0,14,0.00,,,0.00,meteohub,2013-04-06 20:55:00,
2013-04-06 17:00:00,52.0,5.7,30.25,ENE,67,0.0,8.0,15,0.00,,,0.00,meteohub,2013-04-06 21:00:00,
2013-04-06 17:05:00,52.5,10.2,30.25,ENE,69,0.0,8.0,18,0.00,,,0.00,meteohub,2013-04-06 21:05:00,
2013-04-06 17:10:00,53.2,6.8,30.25,ENE,69,0.0,7.0,15,0.00,,,0.00,meteohub,2013-04-06 21:10:00,
2013-04-06 17:16:00,54.1,5.9,30.25,ENE,69,0.0,7.0,14,0.00,,,0.00,meteohub,2013-04-06 21:16:00,
2013-04-06 17:21:00,53.8,4.1,30.25,North,4,0.0,7.0,13,0.00,,,0.00,meteohub,2013-04-06 21:21:00,
2013-04-06 17:26:00,52.0,2.7,30.26,NNE,13,0.0,5.0,13,0.00,,,0.00,meteohub,2013-04-06 21:26:00,
2013-04-06 17:31:00,51.4,6.8,30.26,ENE,71,2.0,4.0,16,0.00,,,0.00,meteohub,2013-04-06 21:31:00,
2013-04-06 17:36:00,53.2,10.8,30.26,ENE,71,1.0,4.0,18,0.00,,,0.00,meteohub,2013-04-06 21:36:00,
2013-04-06 17:41:00,53.6,5.5,30.26,ENE,71,1.0,4.0,14,0.00,,,0.00,meteohub,2013-04-06 21:41:00,
2013-04-06 17:46:00,49.6,5.2,30.27,ENE,71,0.0,4.0,16,0.00,,,0.00,meteohub,2013-04-06 21:46:00,
2013-04-06 17:52:00,45.1,7.5,30.27,ENE,71,2.0,4.0,21,0.00,,,0.00,meteohub,2013-04-06 21:52:00,
2013-04-06 17:57:00,43.0,10.4,30.27,ENE,71,1.0,4.0,26,0.00,,,0.00,meteohub,2013-04-06 21:57:00,
2013-04-06 18:02:00,41.7,10.9,30.27,ENE,71,1.0,4.0,28,0.00,,,0.00,meteohub,2013-04-06 22:02:00,
2013-04-06 18:07:00,41.2,11.3,30.27,ENE,71,2.0,4.0,29,0.00,,,0.00,meteohub,2013-04-06 22:07:00,
2013-04-06 18:12:00,40.8,11.8,30.27,ENE,71,0.0,4.0,30,0.00,,,0.00,meteohub,2013-04-06 22:12:00,
2013-04-06 18:17:00,40.3,14.2,30.27,ENE,71,0.0,4.0,34,0.00,,,0.00,meteohub,2013-04-06 22:17:00,
2013-04-06 18:22:00,39.6,13.5,30.27,SW,219,0.0,2.0,34,0.00,,,0.00,meteohub,2013-04-06 22:22:00,
2013-04-06 18:27:00,39.4,12.7,30.28,SW,219,0.0,2.0,33,0.00,,,0.00,meteohub,2013-04-06 22:27:00,
2013-04-06 18:32:00,39.4,14.7,30.28,SW,219,1.0,2.0,36,0.00,,,0.00,meteohub,2013-04-06 22:32:00,
2013-04-06 18:37:00,39.0,11.7,30.28,SW,219,2.0,2.0,32,0.00,,,0.00,meteohub,2013-04-06 22:37:00,
2013-04-06 18:42:00,39.0,14.4,30.28,SSW,194,0.0,2.0,36,0.00,,,0.00,meteohub,2013-04-06 22:42:00,
2013-04-06 18:47:00,38.8,12.2,30.28,South,183,0.0,2.0,33,0.00,,,0.00,meteohub,2013-04-06 22:47:00,
2013-04-06 18:53:00,38.8,12.2,30.28,South,183,2.0,4.0,33,0.00,,,0.00,meteohub,2013-04-06 22:53:00,
2013-04-06 18:58:00,38.8,13.5,30.28,South,183,0.0,4.0,35,0.00,,,0.00,meteohub,2013-04-06 22:58:00,
2013-04-06 19:03:00,38.5,13.3,30.28,South,183,0.0,3.0,35,0.00,,,0.00,meteohub,2013-04-06 23:03:00,
2013-04-06 19:08:00,38.3,13.1,30.29,South,183,0.0,3.0,35,0.00,,,0.00,meteohub,2013-04-06 23:08:00,
2013-04-06 19:13:00,37.8,16.7,30.29,South,183,1.0,2.0,42,0.00,,,0.00,meteohub,2013-04-06 23:13:00,
2013-04-06 19:18:00,37.2,15.1,30.29,South,183,0.0,1.0,40,0.00,,,0.00,meteohub,2013-04-06 23:18:00,
2013-04-06 19:23:00,36.7,15.8,30.29,South,183,0.0,1.0,42,0.00,,,0.00,meteohub,2013-04-06 23:23:00,
2013-04-06 19:28:00,36.3,14.9,30.29,South,183,0.0,1.0,41,0.00,,,0.00,meteohub,2013-04-06 23:28:00,
2013-04-06 19:34:00,36.1,15.8,30.29,South,183,0.0,1.0,43,0.00,,,0.00,meteohub,2013-04-06 23:34:00,
2013-04-06 19:39:00,35.6,15.3,30.29,South,183,0.0,1.0,43,0.00,,,0.00,meteohub,2013-04-06 23:39:00,
2013-04-06 19:44:00,35.1,14.9,30.29,South,183,0.0,1.0,43,0.00,,,0.00,meteohub,2013-04-06 23:44:00,
2013-04-06 19:49:00,34.5,14.9,30.30,South,183,0.0,1.0,44,0.00,,,0.00,meteohub,2013-04-06 23:49:00,
2013-04-06 19:54:00,34.3,13.6,30.30,South,183,0.0,1.0,42,0.00,,,0.00,meteohub,2013-04-06 23:54:00,
2013-04-06 19:59:00,34.2,14.5,30.30,South,183,0.0,1.0,44,0.00,,,0.00,meteohub,2013-04-06 23:59:00,
2013-04-06 20:04:00,33.6,15.6,30.30,South,183,0.0,1.0,47,0.00,,,0.00,meteohub,2013-04-07 00:04:00,
2013-04-06 20:09:00,33.1,14.0,30.30,SSW,195,0.0,1.0,45,0.00,,,0.00,meteohub,2013-04-07 00:09:00,
2013-04-06 20:14:00,33.1,16.0,30.30,SSW,195,0.0,3.0,49,0.00,,,0.00,meteohub,2013-04-07 00:14:00,
2013-04-06 20:20:00,32.5,14.5,30.30,SSW,195,0.0,3.0,47,0.00,,,0.00,meteohub,2013-04-07 00:20:00,
2013-04-06 20:25:00,32.4,14.4,30.30,SSW,195,0.0,3.0,47,0.00,,,0.00,meteohub,2013-04-07 00:25:00,
2013-04-06 20:30:00,31.8,14.9,30.31,SSW,195,0.0,0.0,49,0.00,,,0.00,meteohub,2013-04-07 00:30:00,
2013-04-06 20:35:00,31.5,14.9,30.31,SSW,195,0.0,0.0,50,0.00,,,0.00,meteohub,2013-04-07 00:35:00,
2013-04-06 20:40:00,31.3,15.3,30.31,SSW,195,0.0,0.0,51,0.00,,,0.00,meteohub,2013-04-07 00:40:00,
2013-04-06 20:45:00,30.9,15.4,30.31,SSW,195,0.0,0.0,52,0.00,,,0.00,meteohub,2013-04-07 00:45:00,
2013-04-06 20:50:00,30.7,16.5,30.32,SSW,195,0.0,0.0,55,0.00,,,0.00,meteohub,2013-04-07 00:50:00,
2013-04-06 20:55:00,30.4,16.2,30.32,SSW,195,0.0,0.0,55,0.00,,,0.00,meteohub,2013-04-07 00:55:00,
2013-04-06 21:00:00,30.0,15.4,30.32,SSW,195,0.0,0.0,54,0.00,,,0.00,meteohub,2013-04-07 01:00:00,
2013-04-06 21:05:00,30.0,16.2,30.32,SSW,195,0.0,0.0,56,0.00,,,0.00,meteohub,2013-04-07 01:05:00,
2013-04-06 21:10:00,29.8,16.5,30.32,SSW,195,0.0,0.0,57,0.00,,,0.00,meteohub,2013-04-07 01:10:00,
2013-04-06 21:15:00,29.7,15.4,30.32,SSW,195,0.0,0.0,55,0.00,,,0.00,meteohub,2013-04-07 01:15:00,
2013-04-06 21:21:00,29.7,16.3,30.32,SSW,195,0.0,0.0,57,0.00,,,0.00,meteohub,2013-04-07 01:21:00,
2013-04-06 21:26:00,29.5,16.5,30.32,SSW,195,0.0,0.0,58,0.00,,,0.00,meteohub,2013-04-07 01:26:00,
2013-04-06 21:31:00,29.3,16.7,30.32,SSW,195,0.0,0.0,59,0.00,,,0.00,meteohub,2013-04-07 01:31:00,
2013-04-06 21:37:00,28.9,16.0,30.32,SSW,195,0.0,0.0,58,0.00,,,0.00,meteohub,2013-04-07 01:37:00,
2013-04-06 21:42:00,28.9,16.3,30.32,SSW,195,0.0,1.0,59,0.00,,,0.00,meteohub,2013-04-07 01:42:00,
2013-04-06 21:47:00,28.9,16.9,30.32,SSW,195,0.0,1.0,60,0.00,,,0.00,meteohub,2013-04-07 01:47:00,
2013-04-06 21:52:00,28.8,17.1,30.32,SSW,195,0.0,1.0,61,0.00,,,0.00,meteohub,2013-04-07 01:52:00,
2013-04-06 21:57:00,28.6,17.2,30.32,SSW,195,0.0,0.0,62,0.00,,,0.00,meteohub,2013-04-07 01:57:00,
2013-04-06 22:02:00,28.6,17.2,30.32,SSW,195,0.0,1.0,62,0.00,,,0.00,meteohub,2013-04-07 02:02:00,
2013-04-06 22:07:00,28.8,17.4,30.32,SSW,195,0.0,1.0,62,0.00,,,0.00,meteohub,2013-04-07 02:07:00,
2013-04-06 22:12:00,28.6,18.0,30.32,SSW,195,0.0,1.0,64,0.00,,,0.00,meteohub,2013-04-07 02:12:00,
2013-04-06 22:17:00,28.4,17.4,30.32,SSW,195,0.0,1.0,63,0.00,,,0.00,meteohub,2013-04-07 02:17:00,
2013-04-06 22:22:00,28.2,17.2,30.32,SSW,195,0.0,1.0,63,0.00,,,0.00,meteohub,2013-04-07 02:22:00,
2013-04-06 22:27:00,28.2,17.2,30.32,SSW,195,0.0,0.0,63,0.00,,,0.00,meteohub,2013-04-07 02:27:00,
2013-04-06 22:32:00,28.0,17.4,30.32,SSW,195,0.0,0.0,64,0.00,,,0.00,meteohub,2013-04-07 02:32:00,
2013-04-06 22:37:00,28.0,17.8,30.32,SSW,195,0.0,0.0,65,0.00,,,0.00,meteohub,2013-04-07 02:37:00,
2013-04-06 22:42:00,27.9,18.0,30.32,SSW,195,1.0,1.0,66,0.00,,,0.00,meteohub,2013-04-07 02:42:00,
2013-04-06 22:47:00,27.9,17.2,30.32,SSW,195,0.0,1.0,64,0.00,,,0.00,meteohub,2013-04-07 02:47:00,
2013-04-06 22:53:00,28.0,17.1,30.32,SSW,195,0.0,1.0,63,0.00,,,0.00,meteohub,2013-04-07 02:53:00,
2013-04-06 22:58:00,27.9,16.9,30.32,SSW,195,0.0,1.0,63,0.00,,,0.00,meteohub,2013-04-07 02:58:00,
2013-04-06 23:03:00,27.7,17.4,30.31,SSW,195,0.0,1.0,65,0.00,,,0.00,meteohub,2013-04-07 03:03:00,
2013-04-06 23:08:00,27.7,17.4,30.31,SSW,195,0.0,1.0,65,0.00,,,0.00,meteohub,2013-04-07 03:08:00,
2013-04-06 23:13:00,27.3,17.8,30.31,SSW,195,0.0,1.0,67,0.00,,,0.00,meteohub,2013-04-07 03:13:00,
2013-04-06 23:18:00,27.1,17.2,30.31,SSW,195,0.0,0.0,66,0.00,,,0.00,meteohub,2013-04-07 03:18:00,
2013-04-06 23:23:00,27.1,17.2,30.30,SSW,195,0.0,0.0,66,0.00,,,0.00,meteohub,2013-04-07 03:23:00,
2013-04-06 23:28:00,26.8,17.6,30.30,SSW,195,0.0,0.0,68,0.00,,,0.00,meteohub,2013-04-07 03:28:00,
2013-04-06 23:33:00,26.8,18.0,30.30,SSW,195,0.0,0.0,69,0.00,,,0.00,meteohub,2013-04-07 03:33:00,
2013-04-06 23:40:00,26.6,17.4,30.30,SSW,195,0.0,0.0,68,0.00,,,0.00,meteohub,2013-04-07 03:40:00,
2013-04-06 23:45:00,26.8,17.2,30.30,SSW,195,0.0,1.0,67,0.00,,,0.00,meteohub,2013-04-07 03:45:00,
2013-04-06 23:50:00,26.8,17.6,30.30,SSW,195,0.0,1.0,68,0.00,,,0.00,meteohub,2013-04-07 03:50:00,
2013-04-06 23:55:00,26.8,17.6,30.30,SSW,195,0.0,1.0,68,0.00,,,0.00,meteohub,2013-04-07 03:55:00,